TOURFACTS.DK  
Stats and Facts from Tour de France.

Tour de France 2019 starts in 347 days
  Riders   Stages   Teams   Summits   Yearly  


 
Search by year

After 2018 - Stage 14:
 15000 starters.
  5163 different riders.
  639 teams.
  2246 stages.
  456 restdays.
  441957.60 km.
  5678 abandonnees.


Top 3
GC
Christopher Froome86:20:55
Rigoberto Urán86:21:49
Romain Bardet86:23:15
Climb
Warren Barguil169 pt.
Primoz Roglic80 pt.
Thomas De Gendt64 pt.
Sprint
Michael Matthews359 pt.
André Greipel234 pt.
Edvald Boasson Hagen220 pt.
Youth
Simon Yates86:27:09
Louis Meintjes86:29:15
Emanuel Buchmann86:54:16
Facts from Tour de France 2002
  |   Stages.  |   Stage winners.  |   Days in yellow  |   Average speed.  |   Route.  |   Teams.  |   All riders.  |   Rookies.  |  

  |   Withdrawls.  |   GC.  |   Polka  |   Green  |   White  |   Summits. (In tour)  |   Miscellaneous.  |  

Stage 4 on July 10th. 2002
         Owning:    Igor Gonzalez    
Pick a stage:  Pro 1 2 3 4 5 6 7 8 9 10 11 12 13 14 15 16 17 18 19 20
From: Épernay    To: Château-ThierryDist:67.50 km.

Average speed for all riders in stage:  48,825 km./hr.
    Place:Name:Team:Time:Km/h:
ESPAbraham OlanoESPO.N.C.E.-Eroski01:19:49  +  00:00:00=50,741 
ESPÁlvaro GonzalezESPO.N.C.E.-Eroski01:19:49  +  00:00:00=50,741 
ESPIgor GonzalezESPO.N.C.E.-Eroski01:19:49  +  00:00:00=50,741 
4 ESPIsidro NozalESPO.N.C.E.-Eroski01:19:49  +  00:00:00=50,741 
5 GERJörg JakscheESPO.N.C.E.-Eroski01:19:49  +  00:00:00=50,741 
6 PORJosé AzevedoESPO.N.C.E.-Eroski01:19:49  +  00:00:00=50,741 
7 ESPJoseba BelokiESPO.N.C.E.-Eroski01:19:49  +  00:00:00=50,741 
8 ESPMarcos SerranoESPO.N.C.E.-Eroski01:19:49  +  00:00:00=50,741 
9 LUXBenoit JoachimUSAUS Postal Service01:20:05  +  00:00:16=50,572 
10 USAFloyd LandisUSAUS Postal Service01:20:05  +  00:00:16=50,572 
11 USAGeorge HincapieUSAUS Postal Service01:20:05  +  00:00:16=50,572 
12 ESPJosé RubieraUSAUS Postal Service01:20:05  +  00:00:16=50,572 
13 USALance ArmstrongUSAUS Postal Service01:20:05  +  00:00:16=50,572 
14 CZEPavel PadrnosUSAUS Postal Service01:20:05  +  00:00:16=50,572 
15 ESPRoberto HerasUSAUS Postal Service01:20:05  +  00:00:16=50,572 
16 COLVictor Hugo PenaUSAUS Postal Service01:20:05  +  00:00:16=50,572 
17 URSViatcheslav EkimovUSAUS Postal Service01:20:14  +  00:00:25=50,478 
18 ITAAndrea PeronDNKTeam CSC-Tiscali01:20:35  +  00:00:46=50,259 
19 ESPCarlos SastreDNKTeam CSC-Tiscali01:20:35  +  00:00:46=50,259 
20 DENJakob PiilDNKTeam CSC-Tiscali01:20:35  +  00:00:46=50,259 
21 FRALaurent JalabertDNKTeam CSC-Tiscali01:20:35  +  00:00:46=50,259 
22 DENNicki SørensenDNKTeam CSC-Tiscali01:20:35  +  00:00:46=50,259 
23 BELPaul Van HyfteDNKTeam CSC-Tiscali01:20:35  +  00:00:46=50,259 
24 USATyler HamiltonDNKTeam CSC-Tiscali01:20:35  +  00:00:46=50,259 
25 ITAIvan BassoITAFassa Bortolo01:21:19  +  00:01:30=49,805 
26 ITAMarco VeloITAFassa Bortolo01:21:19  +  00:01:30=49,805 
27 RUSSerguei IvanovITAFassa Bortolo01:21:19  +  00:01:30=49,805 
28 UKRSerhiy HoncharITAFassa Bortolo01:21:19  +  00:01:30=49,805 
29 UKRVolodymir GustovITAFassa Bortolo01:21:19  +  00:01:30=49,805 
30 ITAWladimir BelliITAFassa Bortolo01:21:19  +  00:01:30=49,805 
31 KAZAndrei KivilevFRACofidis Credit Par Telephone01:21:19  +  00:01:30=49,805 
32 FRACédric VasseurFRACofidis Credit Par Telephone01:21:33  +  00:01:44=49,663 
33 ESPDaniel AtienzaFRACofidis Credit Par Telephone01:21:33  +  00:01:44=49,663 
34 MLTDavid MillarFRACofidis Credit Par Telephone01:21:33  +  00:01:44=49,663 
35 FRADavid MoncoutiéFRACofidis Credit Par Telephone01:21:33  +  00:01:44=49,663 
36 ESPIñigo CuestaFRACofidis Credit Par Telephone01:21:33  +  00:01:44=49,663 
37 ITAMassimiliano LelliFRACofidis Credit Par Telephone01:21:33  +  00:01:44=49,663 
38 BELNico MattanFRACofidis Credit Par Telephone01:21:33  +  00:01:44=49,663 
39 ESPBingen FernandezFRACofidis Credit Par Telephone01:21:42  +  00:01:53=49,572 
40 POLDariusz BaranowskiESPibanesto.com01:21:45  +  00:01:56=49,541 
41 ESPDavid LatasaESPibanesto.com01:21:45  +  00:01:56=49,541 
42 RUSDenis MenchovESPibanesto.com01:21:45  +  00:01:56=49,541 
43 ESPFrancisco ManceboESPibanesto.com01:21:45  +  00:01:56=49,541 
44 ESPJavier PascualESPibanesto.com01:21:45  +  00:01:56=49,541 
45 ESPJosé GarciaESPibanesto.com01:21:45  +  00:01:56=49,541 
46 ESPSantiago BlancoESPibanesto.com01:21:45  +  00:01:56=49,541 
47 ESPUnai OsaESPibanesto.com01:21:45  +  00:01:56=49,541 
48 BELAxel MerckxBELDomo-Farm Frites01:22:01  +  00:02:12=49,380 
49 BELDave BruylandtsBELDomo-Farm Frites01:22:01  +  00:02:12=49,380 
50 ITAEnrico CassaniBELDomo-Farm Frites01:22:01  +  00:02:12=49,380 
51 POLPiotr WadeckiBELDomo-Farm Frites01:22:01  +  00:02:12=49,380 
52 MARRichard VirenqueBELDomo-Farm Frites01:22:01  +  00:02:12=49,380 
53 NEDServais KnavenBELDomo-Farm Frites01:22:01  +  00:02:12=49,380 
54 CZETomas KonecnyBELDomo-Farm Frites01:22:01  +  00:02:12=49,380 
55 NEDLeon van BonBELDomo-Farm Frites01:22:04  +  00:02:15=49,350 
56 SUIBeat ZbergNLDRabobank01:22:05  +  00:02:16=49,340 
57 NEDErik DekkerNLDRabobank01:22:05  +  00:02:16=49,340 
58 GERGrischa NiermannNLDRabobank01:22:05  +  00:02:16=49,340 
59 NEDKarsten KroonNLDRabobank01:22:05  +  00:02:16=49,340 
60 USALevi LeipheimerNLDRabobank01:22:05  +  00:02:16=49,340 
61 BELMarc WautersNLDRabobank01:22:05  +  00:02:16=49,340 
62 NEDMichael BoogerdNLDRabobank01:22:05  +  00:02:16=49,340 
63 ESPConstantino ZaballaESPKelme-Costa Blanca01:22:08  +  00:02:19=49,310 
64 ESPJosé Enrique GutierrezESPKelme-Costa Blanca01:22:08  +  00:02:19=49,310 
65 ESPÓscar SevillaESPKelme-Costa Blanca01:22:08  +  00:02:19=49,310 
66 COLSantiago BoteroESPKelme-Costa Blanca01:22:08  +  00:02:19=49,310 
67 ESPSantiago PérezESPKelme-Costa Blanca01:22:08  +  00:02:19=49,310 
68 ESPAntonio TaulerESPKelme-Costa Blanca01:22:08  +  00:02:19=49,310 
69 BELLudo DierckxsensITALampre-Daikin01:22:11  +  00:02:22=49,280 
70 ITAMarco PinottiITALampre-Daikin01:22:11  +  00:02:22=49,280 
71 URSRaimondas RumsasITALampre-Daikin01:22:11  +  00:02:22=49,280 
72 URSRaivis BelohvosciksITALampre-Daikin01:22:11  +  00:02:22=49,280 
73 SUIRubens BertogliatiITALampre-Daikin01:22:11  +  00:02:22=49,280 
74 COLFred RodriguezBELDomo-Farm Frites01:22:12  +  00:02:23=49,270 
75 FRAAnthony LangellaFRACredit Agricole01:22:17  +  00:02:28=49,220 
76 FRAAnthony MorinFRACredit Agricole01:22:17  +  00:02:28=49,220 
77 FRAChristophe MoreauFRACredit Agricole01:22:17  +  00:02:28=49,220 
78 FRAFrédéric BessyFRACredit Agricole01:22:17  +  00:02:28=49,220 
79 GERJens VoigtFRACredit Agricole01:22:17  +  00:02:28=49,220 
80 USAJonathan VaughtersFRACredit Agricole01:22:17  +  00:02:28=49,220 
81 FRASébastien HinaultFRACredit Agricole01:22:17  +  00:02:28=49,220 
82 AUSStuart O'GradyFRACredit Agricole01:22:17  +  00:02:28=49,220 
83 NORThor HushovdFRACredit Agricole01:22:17  +  00:02:28=49,220 
84 SVKJán SvoradaITALampre-Daikin01:22:29  +  00:02:40=49,101 
85 USABobby JulichUSATeam Telekom01:22:36  +  00:02:47=49,031 
86 GERDanilo HondoUSATeam Telekom01:22:36  +  00:02:47=49,031 
87 DDRErik ZabelUSATeam Telekom01:22:36  +  00:02:47=49,031 
88 ITAGiuseppe GueriniUSATeam Telekom01:22:36  +  00:02:47=49,031 
89 USAKevin LivingstonUSATeam Telekom01:22:36  +  00:02:47=49,031 
90 GERRolf AldagUSATeam Telekom01:22:36  +  00:02:47=49,031 
91 GERSteffen WesemannUSATeam Telekom01:22:36  +  00:02:47=49,031 
92 GERUdo BöltsUSATeam Telekom01:22:36  +  00:02:47=49,031 
93 FRADidier RousFRABonjour01:23:02  +  00:03:13=48,776 
94 FRAFranck BouyerFRABonjour01:23:02  +  00:03:13=48,776 
95 FRAFranck RenierFRABonjour01:23:02  +  00:03:13=48,776 
96 FRAFrançois SimonFRABonjour01:23:02  +  00:03:13=48,776 
97 FRAJérôme PineauFRABonjour01:23:02  +  00:03:13=48,776 
98 FRASylvain ChavanelFRABonjour01:23:02  +  00:03:13=48,776 
99 FRAWalter BénéteauFRABonjour01:23:02  +  00:03:13=48,776 
100 URSAlexandr SheferITAAlessio01:23:04  +  00:03:15=48,756 
101 ITACristian MoreniITAAlessio01:23:04  +  00:03:15=48,756 
102 ITAIvan GottiITAAlessio01:23:04  +  00:03:15=48,756 
103 SUILaurent DufauxITAAlessio01:23:04  +  00:03:15=48,756 
104 SLOMartin HvastijaITAAlessio01:23:04  +  00:03:15=48,756 
105 MDARuslan IvanovITAAlessio01:23:04  +  00:03:15=48,756 
106 ITAAndrea BrognaraITAAlessio01:23:09  +  00:03:20=48,707 
107 FRADamien NazonFRABonjour01:23:18  +  00:03:29=48,619 
108 NEDAart VierhoutenBELLotto-Adecco01:23:21  +  00:03:32=48,590 
109 BELChristophe BrandtBELLotto-Adecco01:23:21  +  00:03:32=48,590 
110 RUSGuennadi MikhailovBELLotto-Adecco01:23:21  +  00:03:32=48,590 
111 BELHans De ClercqBELLotto-Adecco01:23:21  +  00:03:32=48,590 
112 BELMario AertsBELLotto-Adecco01:23:21  +  00:03:32=48,590 
113 BELRik VerbruggheBELLotto-Adecco01:23:21  +  00:03:32=48,590 
114 AUSRobbie McEwenBELLotto-Adecco01:23:21  +  00:03:32=48,590 
115 BELSerge BaguetBELLotto-Adecco01:23:21  +  00:03:32=48,590 
116 AUSBaden CookeFRAfdjeux.com01:23:23  +  00:03:34=48,571 
117 AUSBradley McGeeFRAfdjeux.com01:23:23  +  00:03:34=48,571 
118 FRAChristophe MenginFRAfdjeux.com01:23:23  +  00:03:34=48,571 
119 FRAFrédéric GuesdonFRAfdjeux.com01:23:23  +  00:03:34=48,571 
120 FRAJacky DurandFRAfdjeux.com01:23:23  +  00:03:34=48,571 
121 FRAJean-Cyril RobinFRAfdjeux.com01:23:23  +  00:03:34=48,571 
122 FRANicolas VogondyFRAfdjeux.com01:23:23  +  00:03:34=48,571 
123 FRASandy CasarFRAfdjeux.com01:23:23  +  00:03:34=48,571 
124 ITAOscar PozziITAFassa Bortolo01:23:23  +  00:03:34=48,571 
125 BELThierry MarichalBELLotto-Adecco01:23:23  +  00:03:34=48,571 
126 FRAChristophe EdaleineFRAJean Delatour01:23:31  +  00:03:42=48,493 
127 FRACyril DesselFRAJean Delatour01:23:32  +  00:03:43=48,484 
128 FRAEddy SeigneurFRAJean Delatour01:23:32  +  00:03:43=48,484 
129 FRAJérôme BernardFRAJean Delatour01:23:32  +  00:03:43=48,484 
130 FRALaurent BrochardFRAJean Delatour01:23:32  +  00:03:43=48,484 
131 FRALaurent LefèvreFRAJean Delatour01:23:32  +  00:03:43=48,484 
132 FRAPatrice HalgandFRAJean Delatour01:23:32  +  00:03:43=48,484 
133 FRAStéphane GoubertFRAJean Delatour01:23:32  +  00:03:43=48,484 
134 SLOAndrei HauptmanITATacconi Sport01:23:34  +  00:03:45=48,464 
135 ITADario FrigoITATacconi Sport01:23:34  +  00:03:45=48,464 
136 ITAEddy MazzoleniITATacconi Sport01:23:34  +  00:03:45=48,464 
137 ITAGianluca BortolamiITATacconi Sport01:23:34  +  00:03:45=48,464 
138 ITAMassimo DonatiITATacconi Sport01:23:34  +  00:03:45=48,464 
139 AUTPeter LuttenbergerITATacconi Sport01:23:34  +  00:03:45=48,464 
140 BELFabien De WaeleITAMapei-Quick Step01:23:36  +  00:03:47=48,445 
141 AUTGerhard TrampuschITAMapei-Quick Step01:23:36  +  00:03:47=48,445 
142 HUNLaszlo BodrogiITAMapei-Quick Step01:23:36  +  00:03:47=48,445 
143 ESPMiguel Angel MartinezITAMapei-Quick Step01:23:36  +  00:03:47=48,445 
144 ESPÓscar Freire GómezITAMapei-Quick Step01:23:36  +  00:03:47=48,445 
145 ESPPedro HorrilloITAMapei-Quick Step01:23:36  +  00:03:47=48,445 
146 RSARobert HunterITAMapei-Quick Step01:23:36  +  00:03:47=48,445 
147 BELTom SteelsITAMapei-Quick Step01:23:36  +  00:03:47=48,445 
148 FRAEmmanuel MagnienFRABonjour01:23:52  +  00:04:03=48,291 
149 FRAJimmy CasperFRAfdjeux.com01:24:08  +  00:04:19=48,138 
150 ESPDavid EtxebarriaESPEuskaltel - Euskadi01:24:11  +  00:04:22=48,109 
151 ESPGorka ArrizabalagaESPEuskaltel - Euskadi01:24:11  +  00:04:22=48,109 
152 ESPGorka GonzalezESPEuskaltel - Euskadi01:24:11  +  00:04:22=48,109 
153 ESPHaimar ZubeldiaESPEuskaltel - Euskadi01:24:11  +  00:04:22=48,109 
154 ESPIban MayoESPEuskaltel - Euskadi01:24:11  +  00:04:22=48,109 
155 ESPIgor Flores GalarzaESPEuskaltel - Euskadi01:24:11  +  00:04:22=48,109 
156 ESPRoberto LaisekaESPEuskaltel - Euskadi01:24:11  +  00:04:22=48,109 
157 ESPSamuel SanchezESPEuskaltel - Euskadi01:24:11  +  00:04:22=48,109 
158 RUSAlexandre BotcharovFRAAg2r Prevoyance01:24:13  +  00:04:24=48,090 
159 FRAAndy FlickingerFRAAg2r Prevoyance01:24:13  +  00:04:24=48,090 
160 FRAChristophe AgnoluttoFRAAg2r Prevoyance01:24:13  +  00:04:24=48,090 
161 FRAChristophe OriolFRAAg2r Prevoyance01:24:13  +  00:04:24=48,090 
162 ESPIñigo ChaurreauFRAAg2r Prevoyance01:24:13  +  00:04:24=48,090 
163 FRALudovic TurpinFRAAg2r Prevoyance01:24:13  +  00:04:24=48,090 
164 FRAStéphane BergesFRAAg2r Prevoyance01:24:13  +  00:04:24=48,090 
165 SUIThierry LoderFRAAg2r Prevoyance01:24:13  +  00:04:24=48,090 
166 URSJaan KirsipuuFRAAg2r Prevoyance01:24:48  +  00:04:59=47,759 
167 ITAGian Matteo FagniniUSATeam Telekom01:25:28  +  00:05:39=47,387 
168 ITAStefano CasagrandaITAAlessio01:25:34  +  00:05:45=47,332 
169 DENMichael SandstødDNKTeam CSC-Tiscali01:25:35  +  00:05:46=47,322 
170 ITAMarco SerpelliniITALampre-Daikin01:26:21  +  00:06:32=46,902 
171 NEDAddy EngelsNLDRabobank01:26:49  +  00:07:00=46,650 
172 ITAAlessandro CortinovisITALampre-Daikin01:26:49  +  00:07:00=46,650 
173 ITAAndrea TafiITAMapei-Quick Step01:26:49  +  00:07:00=46,650 
174 URSArvis PiziksDNKTeam CSC-Tiscali01:26:49  +  00:07:00=46,650 
175 NEDBram de GrootNLDRabobank01:26:49  +  00:07:00=46,650 
176 ITADavide CasarottoITAAlessio01:26:49  +  00:07:00=46,650 
177 ITAFabio BaldatoITAFassa Bortolo01:26:49  +  00:07:00=46,650 
178 ESPFrancisco CabelloESPKelme-Costa Blanca01:26:49  +  00:07:00=46,650 
179 ESPJosé Angel VidalESPKelme-Costa Blanca01:26:49  +  00:07:00=46,650 
180 ESPJosé GomezESPKelme-Costa Blanca01:26:49  +  00:07:00=46,650 
181 BRALuciano PagliariniITALampre-Daikin01:26:49  +  00:07:00=46,650 
182 ITAMarzio BruseghinESPibanesto.com01:26:49  +  00:07:00=46,650 
183 ITAMassimo ApollonioITATacconi Sport01:26:49  +  00:07:00=46,650 
184 ITAMauro RadaelliITATacconi Sport01:26:49  +  00:07:00=46,650 
185 ESPMikel PraderaESPO.N.C.E.-Eroski01:26:49  +  00:07:00=46,650 
186 ITANicola LodaITAFassa Bortolo01:26:49  +  00:07:00=46,650 
187 ITAPaolo BossoniITATacconi Sport01:26:49  +  00:07:00=46,650 
188 FRAStéphane AugeFRAJean Delatour01:26:49  +  00:07:00=46,650 
189 VENUnai EtxebarriaESPEuskaltel - Euskadi01:26:49  +  00:07:00=46,650 


Todays birthdays.

1887  Donald Kirkham
1889  Théodore Abada
1911  Guillaume Chavard
1912  Jean Fontenay
1913  Fabien Galateau
1930  Roger Hassenforder
1930  Richard Van Genechten
1936  Philippe Gaudrillet
1937  Joseph Novales
1954  Hans-Peter Jakst
1960  Manuel Ramos
1973  David Etxebarria
1974  Rik Verbrugghe
1976  Jörg Jaksche




Visits: